sensor_id;sensor_type;location;lat;lon;timestamp;temperature;humidity
79786;DHT22;69265;43.614;13.518;2023-04-25T15:14:26;19.20;58.70
79786;DHT22;69265;43.614;13.518;2023-04-25T15:16:51;18.00;57.00
79786;DHT22;69265;43.614;13.518;2023-04-25T15:19:17;16.80;59.00
79786;DHT22;69265;43.614;13.518;2023-04-25T15:21:43;15.80;60.70
79786;DHT22;69265;43.614;13.518;2023-04-25T15:24:08;15.20;62.10
79786;DHT22;69265;43.614;13.518;2023-04-25T15:26:34;14.80;62.80
79786;DHT22;69265;43.614;13.518;2023-04-25T15:29:00;14.60;63.50
79786;DHT22;69265;43.614;13.518;2023-04-25T15:31:26;14.50;64.00
79786;DHT22;69265;43.614;13.518;2023-04-25T15:33:52;14.40;64.50
79786;DHT22;69265;43.614;13.518;2023-04-25T15:36:18;14.40;64.70
79786;DHT22;69265;43.614;13.518;2023-04-25T15:38:44;14.30;65.00
79786;DHT22;69265;43.614;13.518;2023-04-25T15:41:10;14.20;65.60
79786;DHT22;69265;43.614;13.518;2023-04-25T15:43:36;14.30;66.20
79786;DHT22;69265;43.614;13.518;2023-04-25T15:46:04;14.30;66.70
79786;DHT22;69265;43.614;13.518;2023-04-25T15:48:30;14.30;66.40
79786;DHT22;69265;43.614;13.518;2023-04-25T15:50:57;14.20;66.30
79786;DHT22;69265;43.614;13.518;2023-04-25T15:53:23;14.10;66.30
79786;DHT22;69265;43.614;13.518;2023-04-25T15:55:49;14.00;66.50
79786;DHT22;69265;43.614;13.518;2023-04-25T15:58:14;14.00;66.60
79786;DHT22;69265;43.614;13.518;2023-04-25T16:00:40;14.00;66.30
79786;DHT22;69265;43.614;13.518;2023-04-25T16:03:07;14.00;66.40
79786;DHT22;69265;43.614;13.518;2023-04-25T16:05:34;14.10;66.30
79786;DHT22;69265;43.614;13.518;2023-04-25T16:07:59;14.20;66.00
79786;DHT22;69265;43.614;13.518;2023-04-25T16:10:25;14.20;65.80
79786;DHT22;69265;43.614;13.518;2023-04-25T16:12:52;14.20;65.30
79786;DHT22;69265;43.614;13.518;2023-04-25T16:15:18;14.20;65.40
79786;DHT22;69265;43.614;13.518;2023-04-25T16:17:44;14.20;65.40
79786;DHT22;69265;43.614;13.518;2023-04-25T16:20:10;14.20;65.00
79786;DHT22;69265;43.614;13.518;2023-04-25T16:22:39;14.20;65.00
79786;DHT22;69265;43.614;13.518;2023-04-25T16:25:06;14.20;64.60
79786;DHT22;69265;43.614;13.518;2023-04-25T16:27:32;14.10;65.00
79786;DHT22;69265;43.614;13.518;2023-04-25T16:30:04;14.10;64.70
79786;DHT22;69265;43.614;13.518;2023-04-25T16:32:30;14.10;64.80
79786;DHT22;69265;43.614;13.518;2023-04-25T16:34:56;14.10;64.90
79786;DHT22;69265;43.614;13.518;2023-04-25T16:37:23;14.10;65.00
79786;DHT22;69265;43.614;13.518;2023-04-25T16:39:49;14.20;64.30
79786;DHT22;69265;43.614;13.518;2023-04-25T16:42:15;14.20;64.00
79786;DHT22;69265;43.614;13.518;2023-04-25T16:44:40;14.20;63.70
79786;DHT22;69265;43.614;13.518;2023-04-25T16:47:06;14.10;64.00
79786;DHT22;69265;43.614;13.518;2023-04-25T16:49:32;14.10;64.20
79786;DHT22;69265;43.614;13.518;2023-04-25T16:51:58;14.10;64.50
79786;DHT22;69265;43.614;13.518;2023-04-25T16:54:24;14.10;64.50
79786;DHT22;69265;43.614;13.518;2023-04-25T16:56:50;14.10;64.50
79786;DHT22;69265;43.614;13.518;2023-04-25T16:59:17;14.10;64.30
79786;DHT22;69265;43.614;13.518;2023-04-25T17:01:43;14.10;64.10
79786;DHT22;69265;43.614;13.518;2023-04-25T17:04:08;14.10;64.20
79786;DHT22;69265;43.614;13.518;2023-04-25T17:06:34;14.00;64.40
79786;DHT22;69265;43.614;13.518;2023-04-25T17:09:00;13.90;64.70
79786;DHT22;69265;43.614;13.518;2023-04-25T17:11:26;13.90;64.80
79786;DHT22;69265;43.614;13.518;2023-04-25T17:13:51;13.90;64.90
79786;DHT22;69265;43.614;13.518;2023-04-25T17:16:20;13.90;64.80
79786;DHT22;69265;43.614;13.518;2023-04-25T17:18:50;13.80;64.80
79786;DHT22;69265;43.614;13.518;2023-04-25T17:21:17;13.90;64.40
79786;DHT22;69265;43.614;13.518;2023-04-25T17:23:43;13.70;64.10
79786;DHT22;69265;43.614;13.518;2023-04-25T17:26:13;13.70;64.00
79786;DHT22;69265;43.614;13.518;2023-04-25T17:28:39;13.60;64.00
79786;DHT22;69265;43.614;13.518;2023-04-25T17:31:07;13.60;64.30
79786;DHT22;69265;43.614;13.518;2023-04-25T17:33:33;13.60;64.30
79786;DHT22;69265;43.614;13.518;2023-04-25T17:35:59;13.50;64.60
79786;DHT22;69265;43.614;13.518;2023-04-25T17:38:25;13.50;64.70
79786;DHT22;69265;43.614;13.518;2023-04-25T17:40:50;13.50;64.70
79786;DHT22;69265;43.614;13.518;2023-04-25T17:43:16;13.50;64.40
79786;DHT22;69265;43.614;13.518;2023-04-25T17:45:43;13.50;64.50
79786;DHT22;69265;43.614;13.518;2023-04-25T17:48:08;13.50;64.30
79786;DHT22;69265;43.614;13.518;2023-04-25T17:50:34;13.50;64.30
79786;DHT22;69265;43.614;13.518;2023-04-25T17:53:01;13.50;64.40
79786;DHT22;69265;43.614;13.518;2023-04-25T17:55:29;13.50;64.50
79786;DHT22;69265;43.614;13.518;2023-04-25T17:57:55;13.50;64.00
79786;DHT22;69265;43.614;13.518;2023-04-25T18:00:21;13.50;63.80
79786;DHT22;69265;43.614;13.518;2023-04-25T18:02:47;13.40;63.90
79786;DHT22;69265;43.614;13.518;2023-04-25T18:05:15;13.30;63.80
79786;DHT22;69265;43.614;13.518;2023-04-25T18:07:42;13.30;63.70
79786;DHT22;69265;43.614;13.518;2023-04-25T18:10:08;13.30;63.50
79786;DHT22;69265;43.614;13.518;2023-04-25T18:12:36;13.10;63.70
79786;DHT22;69265;43.614;13.518;2023-04-25T18:15:03;13.10;63.50
79786;DHT22;69265;43.614;13.518;2023-04-25T18:17:35;13.10;63.70
79786;DHT22;69265;43.614;13.518;2023-04-25T18:20:12;13.10;63.30
79786;DHT22;69265;43.614;13.518;2023-04-25T18:22:41;13.10;63.10
79786;DHT22;69265;43.614;13.518;2023-04-25T18:25:08;13.10;63.20
79786;DHT22;69265;43.614;13.518;2023-04-25T18:27:38;13.00;63.20
79786;DHT22;69265;43.614;13.518;2023-04-25T18:30:05;13.00;63.50
79786;DHT22;69265;43.614;13.518;2023-04-25T18:32:33;13.00;63.30
79786;DHT22;69265;43.614;13.518;2023-04-25T18:34:59;13.10;63.30
79786;DHT22;69265;43.614;13.518;2023-04-25T18:37:25;13.10;63.40
79786;DHT22;69265;43.614;13.518;2023-04-25T18:39:52;13.10;63.30
79786;DHT22;69265;43.614;13.518;2023-04-25T18:42:19;13.00;63.00
79786;DHT22;69265;43.614;13.518;2023-04-25T18:44:45;13.00;62.90
79786;DHT22;69265;43.614;13.518;2023-04-25T18:47:11;13.00;63.00
79786;DHT22;69265;43.614;13.518;2023-04-25T18:49:38;13.00;63.00
79786;DHT22;69265;43.614;13.518;2023-04-25T18:52:05;13.00;63.00
79786;DHT22;69265;43.614;13.518;2023-04-25T18:54:36;13.00;63.00
79786;DHT22;69265;43.614;13.518;2023-04-25T18:57:02;13.00;63.00
79786;DHT22;69265;43.614;13.518;2023-04-25T18:59:28;13.00;63.10
79786;DHT22;69265;43.614;13.518;2023-04-25T19:01:54;12.90;63.20
79786;DHT22;69265;43.614;13.518;2023-04-25T19:04:20;13.00;63.20
79786;DHT22;69265;43.614;13.518;2023-04-25T19:06:46;13.00;63.10
79786;DHT22;69265;43.614;13.518;2023-04-25T19:09:14;13.00;63.00
79786;DHT22;69265;43.614;13.518;2023-04-25T19:11:40;12.90;62.80
79786;DHT22;69265;43.614;13.518;2023-04-25T19:14:06;12.90;63.00
79786;DHT22;69265;43.614;13.518;2023-04-25T19:16:31;12.90;63.20
79786;DHT22;69265;43.614;13.518;2023-04-25T19:19:03;12.90;63.20
79786;DHT22;69265;43.614;13.518;2023-04-25T19:21:29;12.90;63.20
79786;DHT22;69265;43.614;13.518;2023-04-25T19:23:56;12.90;63.20
79786;DHT22;69265;43.614;13.518;2023-04-25T19:26:22;12.90;63.40
79786;DHT22;69265;43.614;13.518;2023-04-25T19:29:03;12.90;63.30
79786;DHT22;69265;43.614;13.518;2023-04-25T19:31:31;12.90;63.30
79786;DHT22;69265;43.614;13.518;2023-04-25T19:33:57;12.90;63.50
79786;DHT22;69265;43.614;13.518;2023-04-25T19:36:23;12.90;63.40
79786;DHT22;69265;43.614;13.518;2023-04-25T19:38:49;12.80;63.10
79786;DHT22;69265;43.614;13.518;2023-04-25T19:41:15;12.80;63.20
79786;DHT22;69265;43.614;13.518;2023-04-25T19:43:42;12.80;63.30
79786;DHT22;69265;43.614;13.518;2023-04-25T19:46:08;12.80;63.20
79786;DHT22;69265;43.614;13.518;2023-04-25T19:48:34;12.80;63.00
79786;DHT22;69265;43.614;13.518;2023-04-25T19:51:00;12.80;63.00
79786;DHT22;69265;43.614;13.518;2023-04-25T19:53:26;12.80;63.20
79786;DHT22;69265;43.614;13.518;2023-04-25T19:55:53;12.80;63.90
79786;DHT22;69265;43.614;13.518;2023-04-25T19:58:21;12.70;64.10
79786;DHT22;69265;43.614;13.518;2023-04-25T20:00:46;12.50;64.60
79786;DHT22;69265;43.614;13.518;2023-04-25T20:03:13;12.50;64.90
79786;DHT22;69265;43.614;13.518;2023-04-25T20:05:40;12.30;65.40
79786;DHT22;69265;43.614;13.518;2023-04-25T20:08:06;12.20;65.60
79786;DHT22;69265;43.614;13.518;2023-04-25T20:10:32;12.10;65.90
79786;DHT22;69265;43.614;13.518;2023-04-25T20:12:58;12.10;66.30
79786;DHT22;69265;43.614;13.518;2023-04-25T20:15:24;12.00;66.50
79786;DHT22;69265;43.614;13.518;2023-04-25T20:17:51;12.00;66.60
79786;DHT22;69265;43.614;13.518;2023-04-25T20:20:17;11.90;66.60
79786;DHT22;69265;43.614;13.518;2023-04-25T20:22:43;11.90;66.60
79786;DHT22;69265;43.614;13.518;2023-04-25T20:25:10;11.90;67.00
79786;DHT22;69265;43.614;13.518;2023-04-25T20:27:36;11.80;67.10
79786;DHT22;69265;43.614;13.518;2023-04-25T20:30:04;11.80;67.10
79786;DHT22;69265;43.614;13.518;2023-04-25T20:32:33;11.70;67.10
79786;DHT22;69265;43.614;13.518;2023-04-25T20:35:03;11.70;67.30
79786;DHT22;69265;43.614;13.518;2023-04-25T20:37:29;11.70;67.40
79786;DHT22;69265;43.614;13.518;2023-04-25T20:39:59;11.70;67.40
79786;DHT22;69265;43.614;13.518;2023-04-25T20:42:26;11.60;67.50
79786;DHT22;69265;43.614;13.518;2023-04-25T20:44:51;11.50;67.50
79786;DHT22;69265;43.614;13.518;2023-04-25T20:47:18;11.50;67.60
79786;DHT22;69265;43.614;13.518;2023-04-25T20:49:44;11.50;67.60
79786;DHT22;69265;43.614;13.518;2023-04-25T20:52:13;11.50;67.50
79786;DHT22;69265;43.614;13.518;2023-04-25T20:54:40;11.50;67.50
79786;DHT22;69265;43.614;13.518;2023-04-25T20:57:06;11.50;67.60
79786;DHT22;69265;43.614;13.518;2023-04-25T20:59:31;11.40;67.60
79786;DHT22;69265;43.614;13.518;2023-04-25T21:01:59;11.40;67.50
79786;DHT22;69265;43.614;13.518;2023-04-25T21:04:25;11.40;67.70
79786;DHT22;69265;43.614;13.518;2023-04-25T21:06:50;11.40;67.70
79786;DHT22;69265;43.614;13.518;2023-04-25T21:09:16;11.30;67.60
79786;DHT22;69265;43.614;13.518;2023-04-25T21:11:43;11.30;67.70
79786;DHT22;69265;43.614;13.518;2023-04-25T21:14:10;11.30;67.70
79786;DHT22;69265;43.614;13.518;2023-04-25T21:16:35;11.30;67.70
79786;DHT22;69265;43.614;13.518;2023-04-25T21:19:03;11.30;67.70
79786;DHT22;69265;43.614;13.518;2023-04-25T21:21:29;11.30;67.70
79786;DHT22;69265;43.614;13.518;2023-04-25T21:23:56;11.30;67.80
79786;DHT22;69265;43.614;13.518;2023-04-25T21:26:22;11.20;67.90
79786;DHT22;69265;43.614;13.518;2023-04-25T21:28:48;11.20;68.00
79786;DHT22;69265;43.614;13.518;2023-04-25T21:31:14;11.10;68.00
79786;DHT22;69265;43.614;13.518;2023-04-25T21:33:40;11.10;68.00
79786;DHT22;69265;43.614;13.518;2023-04-25T21:36:06;11.10;68.10
79786;DHT22;69265;43.614;13.518;2023-04-25T21:38:32;11.10;68.00
79786;DHT22;69265;43.614;13.518;2023-04-25T21:40:58;11.10;68.00
79786;DHT22;69265;43.614;13.518;2023-04-25T21:43:24;11.10;68.20
79786;DHT22;69265;43.614;13.518;2023-04-25T21:45:50;11.10;68.10
79786;DHT22;69265;43.614;13.518;2023-04-25T21:48:16;11.10;68.20
79786;DHT22;69265;43.614;13.518;2023-04-25T21:50:42;11.10;68.30
79786;DHT22;69265;43.614;13.518;2023-04-25T21:53:07;11.10;68.20
79786;DHT22;69265;43.614;13.518;2023-04-25T21:55:35;11.10;68.10
79786;DHT22;69265;43.614;13.518;2023-04-25T21:58:01;11.10;68.10
79786;DHT22;69265;43.614;13.518;2023-04-25T22:00:27;11.10;68.10
79786;DHT22;69265;43.614;13.518;2023-04-25T22:02:53;11.10;68.10
79786;DHT22;69265;43.614;13.518;2023-04-25T22:05:20;11.10;68.20
79786;DHT22;69265;43.614;13.518;2023-04-25T22:07:51;11.00;68.20
79786;DHT22;69265;43.614;13.518;2023-04-25T22:10:18;11.00;68.30
79786;DHT22;69265;43.614;13.518;2023-04-25T22:12:44;11.10;68.30
79786;DHT22;69265;43.614;13.518;2023-04-25T22:15:12;11.00;68.40
79786;DHT22;69265;43.614;13.518;2023-04-25T22:17:38;11.00;68.40
79786;DHT22;69265;43.614;13.518;2023-04-25T22:20:05;11.00;68.50
79786;DHT22;69265;43.614;13.518;2023-04-25T22:22:35;11.00;68.50
79786;DHT22;69265;43.614;13.518;2023-04-25T22:25:00;11.00;68.60
79786;DHT22;69265;43.614;13.518;2023-04-25T22:27:26;11.00;68.70
79786;DHT22;69265;43.614;13.518;2023-04-25T22:29:52;10.90;68.80
79786;DHT22;69265;43.614;13.518;2023-04-25T22:32:18;10.90;68.80
79786;DHT22;69265;43.614;13.518;2023-04-25T22:34:44;10.90;69.00
79786;DHT22;69265;43.614;13.518;2023-04-25T22:37:10;10.90;69.10
79786;DHT22;69265;43.614;13.518;2023-04-25T22:39:36;10.90;69.10
79786;DHT22;69265;43.614;13.518;2023-04-25T22:42:02;10.90;69.20
79786;DHT22;69265;43.614;13.518;2023-04-25T22:44:29;10.90;69.30
79786;DHT22;69265;43.614;13.518;2023-04-25T22:46:55;10.80;69.40
79786;DHT22;69265;43.614;13.518;2023-04-25T22:49:21;10.80;69.40
79786;DHT22;69265;43.614;13.518;2023-04-25T22:51:47;10.90;69.60
79786;DHT22;69265;43.614;13.518;2023-04-25T22:54:18;10.80;69.60
79786;DHT22;69265;43.614;13.518;2023-04-25T22:56:44;10.80;69.60
79786;DHT22;69265;43.614;13.518;2023-04-25T22:59:09;10.80;69.60
79786;DHT22;69265;43.614;13.518;2023-04-25T23:01:36;10.80;69.60
79786;DHT22;69265;43.614;13.518;2023-04-25T23:04:03;10.80;69.60
79786;DHT22;69265;43.614;13.518;2023-04-25T23:06:28;10.80;69.60
79786;DHT22;69265;43.614;13.518;2023-04-25T23:08:54;10.80;69.70
79786;DHT22;69265;43.614;13.518;2023-04-25T23:11:20;10.80;69.70
79786;DHT22;69265;43.614;13.518;2023-04-25T23:13:46;10.80;69.70
79786;DHT22;69265;43.614;13.518;2023-04-25T23:16:12;10.70;69.70
79786;DHT22;69265;43.614;13.518;2023-04-25T23:18:38;10.70;69.70
79786;DHT22;69265;43.614;13.518;2023-04-25T23:21:05;10.70;69.70
79786;DHT22;69265;43.614;13.518;2023-04-25T23:23:35;10.70;69.70
79786;DHT22;69265;43.614;13.518;2023-04-25T23:26:09;10.70;69.70
79786;DHT22;69265;43.614;13.518;2023-04-25T23:28:35;10.70;69.70
79786;DHT22;69265;43.614;13.518;2023-04-25T23:31:06;10.60;69.80
79786;DHT22;69265;43.614;13.518;2023-04-25T23:33:32;10.60;69.80
79786;DHT22;69265;43.614;13.518;2023-04-25T23:35:59;10.60;69.90
79786;DHT22;69265;43.614;13.518;2023-04-25T23:38:25;10.60;69.90
79786;DHT22;69265;43.614;13.518;2023-04-25T23:40:51;10.60;69.90
79786;DHT22;69265;43.614;13.518;2023-04-25T23:43:17;10.60;70.00
79786;DHT22;69265;43.614;13.518;2023-04-25T23:45:42;10.60;70.00
79786;DHT22;69265;43.614;13.518;2023-04-25T23:48:13;10.50;70.00
79786;DHT22;69265;43.614;13.518;2023-04-25T23:50:39;10.50;70.10
79786;DHT22;69265;43.614;13.518;2023-04-25T23:53:06;10.50;70.00
79786;DHT22;69265;43.614;13.518;2023-04-25T23:55:32;10.50;70.10
79786;DHT22;69265;43.614;13.518;2023-04-25T23:57:58;10.50;70.00
